• Join FlightAware (Why Join?)
  • Login
  • US Flag 
10:39AM EST


 

Airport Tracker/Info


-or-


 

Live Flight TrackerFlight Track Log ✈ SKW4664 ✈ 17-Jul-2013 ✈ KFSD - KMSP

Flight Track Log - Related Links

Times and Time Zones

All times are in EDT time to prevent confusion due to time zone crossing. See the SKW4664 flight status page for this flight to view local times or setup timezone preferences in your user account.

Time Position Orientation Groundspeed Altitude Reporting Facility
EDT Latitude Longitude Course Direction KTS MPH feet Rate Location/Type
12:10PM 43.5456 -96.6919 101° East 239 275 4,000  Level Minneapolis Center
12:11PM 43.5944 -96.6172 48° Northeast 254 292 6,000 1,980 Climbing Minneapolis Center
12:12PM 43.8523 -96.2348 53° Northeast  Level FlightAware Approximate
12:12PM 43.6461 -96.5261 52° Northeast 278 320 8,200  Level Minneapolis Center
12:13PM 43.9222 -96.1069 52° Northeast  Level FlightAware Approximate
12:13PM 43.7017 -96.4342 50° Northeast 300 345 10,400  Level Minneapolis Center
12:14PM 43.9935 -95.9804 52° Northeast  Level FlightAware Approximate
12:14PM 43.7606 -96.3375 50° Northeast 321 369 12,100  Level Minneapolis Center
12:15PM 43.8339 -96.2164 50° Northeast 339 390 14,100 1,680 Climbing Minneapolis Center
12:16PM 43.8953 -96.1094 51° Northeast 353 406 15,600 1,380 Climbing Minneapolis Center
12:17PM 43.9583 -96.0033 50° Northeast 361 415 17,000 660 Climbing Minneapolis Center
12:18PM 44.0253 -95.8903 51° Northeast 381 438 17,000  Level Minneapolis Center
12:19PM 44.1089 -95.7500 50° Northeast 397 457 17,000  Level Minneapolis Center
12:20PM 44.1644 -95.6197 59° Northeast 397 457 17,000  Level Minneapolis Center
12:21PM 44.2142 -95.4847 63° Northeast 396 456 17,000  Level Minneapolis Center
12:22PM 44.2644 -95.3503 62° Northeast 394 453 17,000  Level Minneapolis Center
12:23PM 44.3147 -95.2156 62° Northeast 394 453 17,000  Level Minneapolis Center
12:24PM 44.3639 -95.0781 63° Northeast 396 456 17,000  Level Minneapolis Center
12:25PM 44.4236 -94.9131 63° Northeast 395 455 17,000  Level Minneapolis Center
12:26PM 44.4633 -94.8042 63° Northeast 394 453 17,000  Level Minneapolis Center
12:27PM 44.5231 -94.6397 63° Northeast 397 457 17,000  Level Minneapolis Center
12:28PM 44.5764 -94.4886 64° Northeast 398 458 17,000 -1,140 Level Minneapolis Center
12:29PM 44.6264 -94.3500 63° Northeast 400 460 14,700 -2,520 Descending Minneapolis Center
12:30PM 44.6750 -94.2100 64° Northeast 398 458 11,900 -1,800 Descending Minneapolis Center
12:31PM 44.7131 -94.0686 69° East 388 447 11,000 -480 Descending Minneapolis Center
12:33PM 44.7444 -93.9264 73° East 381 438 11,000  Level Minneapolis Center
12:34PM 44.7775 -93.7803 72° East 391 450 11,000  Level Minneapolis Center
12:35PM 44.8164 -93.6053 73° East 390 449 11,000 -480 Level Minneapolis Center
12:36PM 44.8442 -93.4789 73° East 332 382 10,100 -1,020 Descending Minneapolis Center
12:37PM 44.8658 -93.3644 75° East 299 344 9,000 -1,020 Descending Minneapolis Center
12:38PM 44.8133 -93.3178 148° Southeast 240 276 8,000 -1,080 Descending Minneapolis Center
12:39PM 44.7389 -93.3094 175° South 232 267 6,600 -1,200 Descending Minneapolis Center
12:40PM 44.6867 -93.2583 145° Southeast 243 280 5,400 -1,200 Descending Minneapolis Center
12:41PM 44.7125 -93.2086 54° Northeast 221 254 4,200 -1,200 Descending Minneapolis Center